createdAt,value
2022-09-14T00:01:31.603Z,16.60
2022-09-14T00:03:59.701Z,16.60
2022-09-14T00:06:26.958Z,16.50
2022-09-14T00:08:54.636Z,16.50
2022-09-14T00:11:22.324Z,16.40
2022-09-14T00:13:49.288Z,16.40
2022-09-14T00:16:23.750Z,16.40
2022-09-14T00:18:53.918Z,16.30
2022-09-14T00:21:20.965Z,16.30
2022-09-14T00:23:47.818Z,16.30
2022-09-14T00:26:15.826Z,16.40
2022-09-14T00:28:43.693Z,16.30
2022-09-14T00:31:12.874Z,16.20
2022-09-14T00:33:41.401Z,16.20
2022-09-14T00:36:08.984Z,16.20
2022-09-14T00:38:35.903Z,16.10
2022-09-14T00:41:03.783Z,16.10
2022-09-14T00:43:30.640Z,16.10
2022-09-14T00:45:59.830Z,16.10
2022-09-14T00:48:26.987Z,16.10
2022-09-14T00:50:53.933Z,16.10
2022-09-14T00:53:20.677Z,16.10
2022-09-14T00:55:47.520Z,16.10
2022-09-14T00:58:14.172Z,16.00
2022-09-14T01:00:40.902Z,16.00
2022-09-14T01:03:07.659Z,16.00
2022-09-14T01:05:52.752Z,16.10
2022-09-14T01:08:31.714Z,16.10
2022-09-14T01:11:04.847Z,16.10
2022-09-14T01:13:51.915Z,16.10
2022-09-14T01:16:21.959Z,16.00
2022-09-14T01:18:55.254Z,16.00
2022-09-14T01:21:28.171Z,15.90
2022-09-14T01:23:55.005Z,15.90
2022-09-14T01:26:40.644Z,15.80
2022-09-14T01:29:26.524Z,15.80
2022-09-14T01:31:59.220Z,15.80
2022-09-14T01:34:29.046Z,15.90
2022-09-14T01:36:58.953Z,15.90
2022-09-14T01:39:28.447Z,15.80
2022-09-14T01:41:55.992Z,15.80
2022-09-14T01:44:32.493Z,15.80
2022-09-14T01:47:06.179Z,15.80
2022-09-14T01:49:37.069Z,15.80
2022-09-14T01:52:15.955Z,15.90
2022-09-14T01:54:48.026Z,15.90
2022-09-14T01:57:26.755Z,15.80
2022-09-14T01:59:55.869Z,15.80
2022-09-14T02:02:28.725Z,15.80
2022-09-14T02:04:58.396Z,15.80
2022-09-14T02:07:25.087Z,15.80
2022-09-14T02:09:53.366Z,15.80
2022-09-14T02:12:20.247Z,15.80
2022-09-14T02:14:47.074Z,15.80
2022-09-14T02:17:14.021Z,15.70
2022-09-14T02:19:42.620Z,15.70
2022-09-14T02:22:09.376Z,15.80
2022-09-14T02:24:36.591Z,15.80
2022-09-14T02:27:03.591Z,15.80
2022-09-14T02:29:30.905Z,15.80
2022-09-14T02:31:57.531Z,15.80
2022-09-14T02:34:24.214Z,15.80
2022-09-14T02:36:51.002Z,15.80
2022-09-14T02:39:17.670Z,15.70
2022-09-14T02:41:44.873Z,15.60
2022-09-14T02:44:11.476Z,15.60
2022-09-14T02:46:41.528Z,15.50
2022-09-14T02:49:20.082Z,15.50
2022-09-14T02:51:59.611Z,15.50
2022-09-14T02:54:32.926Z,15.60
2022-09-14T02:57:00.416Z,15.60
2022-09-14T02:59:27.121Z,15.70
2022-09-14T03:01:53.858Z,15.80
2022-09-14T03:04:20.495Z,15.70
2022-09-14T03:06:47.103Z,15.80
2022-09-14T03:09:13.760Z,15.70
2022-09-14T03:11:40.368Z,15.70
2022-09-14T03:14:07.111Z,15.80
2022-09-14T03:16:33.823Z,15.80
2022-09-14T03:19:00.499Z,15.80
2022-09-14T03:21:27.129Z,15.80
2022-09-14T03:23:55.199Z,15.80
2022-09-14T03:26:22.682Z,15.80
2022-09-14T03:28:53.367Z,15.80
2022-09-14T03:31:20.073Z,15.90
2022-09-14T03:33:46.873Z,15.80
2022-09-14T03:36:15.272Z,15.80
2022-09-14T03:38:45.662Z,15.80
2022-09-14T03:41:12.835Z,15.80
2022-09-14T03:43:39.600Z,15.80
2022-09-14T03:46:07.326Z,15.80
2022-09-14T03:48:34.260Z,15.80
2022-09-14T03:51:01.452Z,15.80
2022-09-14T03:53:28.336Z,15.90
2022-09-14T03:55:54.993Z,15.80
2022-09-14T03:58:22.735Z,15.90
2022-09-14T04:00:49.414Z,15.80
2022-09-14T04:03:16.185Z,15.80
2022-09-14T04:05:42.911Z,15.80
2022-09-14T04:08:09.553Z,15.70
2022-09-14T04:10:36.182Z,15.80
2022-09-14T04:13:02.788Z,15.80
2022-09-14T04:15:29.442Z,15.80
2022-09-14T04:17:56.064Z,15.80
2022-09-14T04:20:22.705Z,15.80
2022-09-14T04:22:49.306Z,15.90
2022-09-14T04:25:15.992Z,15.90
2022-09-14T04:27:42.561Z,15.90
2022-09-14T04:30:09.387Z,15.90
2022-09-14T04:32:35.980Z,15.90
2022-09-14T04:35:02.668Z,15.90
2022-09-14T04:37:30.758Z,15.90
2022-09-14T04:39:57.431Z,15.90
2022-09-14T04:42:24.542Z,15.90
2022-09-14T04:44:51.378Z,15.90
2022-09-14T04:47:18.021Z,15.90
2022-09-14T04:49:44.696Z,15.90
2022-09-14T04:52:11.511Z,15.90
2022-09-14T04:54:38.120Z,15.90
2022-09-14T04:57:04.897Z,15.80
2022-09-14T04:59:31.596Z,15.80
2022-09-14T05:01:58.290Z,15.80
2022-09-14T05:04:25.011Z,15.90
2022-09-14T05:06:51.705Z,15.90
2022-09-14T05:09:18.962Z,15.90
2022-09-14T05:11:46.093Z,15.90
2022-09-14T05:14:13.688Z,15.90
2022-09-14T05:16:41.126Z,15.90
2022-09-14T05:19:09.378Z,16.00
2022-09-14T05:21:37.013Z,16.00
2022-09-14T05:24:12.194Z,16.00
2022-09-14T05:26:38.891Z,16.00
2022-09-14T05:29:05.608Z,16.00
2022-09-14T05:31:32.788Z,16.10
2022-09-14T05:33:59.769Z,16.20
2022-09-14T05:36:26.823Z,16.20
2022-09-14T05:38:53.747Z,16.30
2022-09-14T05:41:20.395Z,16.40
2022-09-14T05:43:47.087Z,16.40
2022-09-14T05:46:14.690Z,16.40
2022-09-14T05:48:41.468Z,16.50
2022-09-14T05:51:14.024Z,16.40
2022-09-14T05:53:40.812Z,16.40
2022-09-14T05:56:09.044Z,16.40
2022-09-14T05:58:36.836Z,16.40
2022-09-14T06:01:07.669Z,16.50
2022-09-14T06:03:34.489Z,16.50
2022-09-14T06:06:01.340Z,16.50
2022-09-14T06:08:28.158Z,16.60
2022-09-14T06:10:54.770Z,16.60
2022-09-14T06:13:23.356Z,16.70
2022-09-14T06:15:49.978Z,16.70
2022-09-14T06:18:16.625Z,16.70
2022-09-14T06:20:50.456Z,16.80
2022-09-14T06:23:17.140Z,16.80
2022-09-14T06:25:44.445Z,16.80
2022-09-14T06:28:11.074Z,16.80
2022-09-14T06:30:37.707Z,16.90
2022-09-14T06:33:05.043Z,16.90
2022-09-14T06:35:31.777Z,16.80
2022-09-14T06:37:58.390Z,16.90
2022-09-14T06:40:27.083Z,16.80
2022-09-14T06:42:54.008Z,16.80
2022-09-14T06:45:20.602Z,16.90
2022-09-14T06:47:47.364Z,16.90
2022-09-14T06:50:14.050Z,16.90
2022-09-14T06:52:40.777Z,16.90
2022-09-14T06:55:07.611Z,16.80
2022-09-14T06:57:34.370Z,16.90
2022-09-14T07:00:01.041Z,16.90
2022-09-14T07:02:27.713Z,17.00
2022-09-14T07:04:54.360Z,17.10
2022-09-14T07:07:21.082Z,17.20
2022-09-14T07:09:47.720Z,17.20
2022-09-14T07:12:14.334Z,17.30
2022-09-14T07:14:41.043Z,17.30
2022-09-14T07:17:07.655Z,17.30
2022-09-14T07:19:34.341Z,17.30
2022-09-14T07:22:01.599Z,17.30
2022-09-14T07:24:28.338Z,17.40
2022-09-14T07:26:55.046Z,17.40
2022-09-14T07:29:21.976Z,17.60
2022-09-14T07:31:50.016Z,17.50
2022-09-14T07:34:16.644Z,17.60
2022-09-14T07:36:43.624Z,17.60
2022-09-14T07:39:11.545Z,17.70
2022-09-14T07:41:38.291Z,17.70
2022-09-14T07:44:06.151Z,17.90
2022-09-14T07:46:38.144Z,17.90
2022-09-14T07:49:05.458Z,17.90
2022-09-14T07:51:32.437Z,17.90
2022-09-14T07:54:00.819Z,17.90
2022-09-14T07:56:28.133Z,18.00
2022-09-14T07:59:11.526Z,18.00
2022-09-14T08:01:43.852Z,18.00
2022-09-14T08:04:10.586Z,18.00
2022-09-14T08:06:37.342Z,18.00
2022-09-14T08:09:06.181Z,18.00
2022-09-14T08:11:34.465Z,18.00
2022-09-14T08:14:05.731Z,18.00
2022-09-14T08:16:34.071Z,18.00
2022-09-14T08:19:02.282Z,18.00
2022-09-14T08:21:30.270Z,18.10
2022-09-14T08:23:57.879Z,18.10
2022-09-14T08:26:26.091Z,18.20
2022-09-14T08:28:53.848Z,18.20
2022-09-14T08:31:21.614Z,18.30
2022-09-14T08:33:49.679Z,18.50
2022-09-14T08:36:17.433Z,18.50
2022-09-14T08:38:44.372Z,18.50
2022-09-14T08:41:21.931Z,18.60
2022-09-14T08:43:48.751Z,18.70
2022-09-14T08:46:21.973Z,18.80
2022-09-14T08:48:49.318Z,18.80
2022-09-14T08:51:17.700Z,18.90
2022-09-14T08:53:44.856Z,19.00
2022-09-14T08:56:31.418Z,19.00
2022-09-14T08:59:04.175Z,19.20
2022-09-14T09:01:37.786Z,19.30
2022-09-14T09:04:24.044Z,19.40
2022-09-14T09:07:06.077Z,19.40
2022-09-14T09:09:35.754Z,19.60
2022-09-14T09:12:02.511Z,19.70
2022-09-14T09:14:32.225Z,19.80
2022-09-14T09:17:00.637Z,19.90
2022-09-14T09:19:32.603Z,20.10
2022-09-14T09:21:59.947Z,20.30
2022-09-14T09:24:36.477Z,20.30
2022-09-14T09:27:09.683Z,20.30
2022-09-14T09:29:36.271Z,20.20
2022-09-14T09:32:04.275Z,20.20
2022-09-14T09:34:31.223Z,20.30
2022-09-14T09:37:00.800Z,20.30
2022-09-14T09:39:30.356Z,20.40
2022-09-14T09:42:02.034Z,20.50
2022-09-14T09:44:28.784Z,20.50
2022-09-14T09:46:59.695Z,20.60
2022-09-14T09:49:34.996Z,20.60
2022-09-14T09:52:09.967Z,20.50
2022-09-14T09:54:37.816Z,20.60
2022-09-14T09:57:06.563Z,20.70
2022-09-14T09:59:38.042Z,20.80
2022-09-14T10:02:26.849Z,21.00
2022-09-14T10:04:59.880Z,21.10
2022-09-14T10:07:27.682Z,21.30
2022-09-14T10:10:01.669Z,21.40
2022-09-14T10:12:28.865Z,21.40
2022-09-14T10:15:04.957Z,21.50
2022-09-14T10:17:31.661Z,21.70
2022-09-14T10:19:59.066Z,21.80
2022-09-14T10:22:33.131Z,21.80
2022-09-14T10:25:19.210Z,21.90
2022-09-14T10:27:55.065Z,21.90
2022-09-14T10:30:23.146Z,22.00
2022-09-14T10:32:53.508Z,22.00
2022-09-14T10:35:21.500Z,22.00
2022-09-14T10:38:01.616Z,22.10
2022-09-14T10:40:35.614Z,22.20
2022-09-14T10:43:16.830Z,22.30
2022-09-14T10:45:46.422Z,22.30
2022-09-14T10:48:20.091Z,22.50
2022-09-14T10:50:57.324Z,22.50
2022-09-14T10:53:32.524Z,22.60
2022-09-14T10:56:05.912Z,22.70
2022-09-14T10:58:32.516Z,22.80
2022-09-14T11:01:14.587Z,22.90
2022-09-14T11:03:45.737Z,23.00
2022-09-14T11:06:30.936Z,23.10
2022-09-14T11:08:57.623Z,23.20
2022-09-14T11:11:27.463Z,23.30
2022-09-14T11:14:13.329Z,23.40
2022-09-14T11:16:47.864Z,23.50
2022-09-14T11:19:17.567Z,23.60
2022-09-14T11:21:50.118Z,23.60
2022-09-14T11:24:33.335Z,23.80
2022-09-14T11:27:10.425Z,23.80
2022-09-14T11:29:44.532Z,23.90
2022-09-14T11:32:21.720Z,23.90
2022-09-14T11:34:57.805Z,24.00
2022-09-14T11:37:28.333Z,24.00
2022-09-14T11:40:13.891Z,24.10
2022-09-14T11:42:44.633Z,24.00
2022-09-14T11:45:16.087Z,23.90
2022-09-14T11:47:48.890Z,23.90
2022-09-14T11:50:20.959Z,24.00
2022-09-14T11:52:48.760Z,24.00
2022-09-14T11:55:17.347Z,24.10
2022-09-14T11:57:45.303Z,24.10
2022-09-14T12:00:24.153Z,24.20
2022-09-14T12:03:09.672Z,24.40
2022-09-14T12:05:36.552Z,24.70
2022-09-14T12:08:05.381Z,24.90
2022-09-14T12:10:51.957Z,24.90
2022-09-14T12:13:22.366Z,25.10
2022-09-14T12:16:00.316Z,25.30
2022-09-14T12:18:27.624Z,25.40
2022-09-14T12:21:01.679Z,25.60
2022-09-14T12:23:37.595Z,25.70
2022-09-14T12:26:10.322Z,25.90
2022-09-14T12:28:37.351Z,26.00
2022-09-14T12:31:04.132Z,26.10
2022-09-14T12:33:33.877Z,26.20
2022-09-14T12:36:19.276Z,26.20
2022-09-14T12:38:58.164Z,26.10
2022-09-14T12:41:24.922Z,26.20
2022-09-14T12:43:51.639Z,26.30
2022-09-14T12:46:21.194Z,26.30
2022-09-14T12:48:53.080Z,26.40
2022-09-14T12:51:43.091Z,26.30
2022-09-14T12:54:09.768Z,26.30
2022-09-14T12:56:53.822Z,26.30
2022-09-14T12:59:20.736Z,26.30
2022-09-14T13:01:59.724Z,26.40
2022-09-14T13:04:33.608Z,26.70
2022-09-14T13:07:02.395Z,26.70
2022-09-14T13:09:30.499Z,27.00
2022-09-14T13:12:05.703Z,27.10
2022-09-14T13:14:40.119Z,27.10
2022-09-14T13:17:11.995Z,27.10
2022-09-14T13:19:38.997Z,27.10
2022-09-14T13:22:18.026Z,26.90
2022-09-14T13:24:45.811Z,26.90
2022-09-14T13:27:21.286Z,26.90
2022-09-14T13:29:48.471Z,26.90
2022-09-14T13:32:18.428Z,26.80
2022-09-14T13:34:45.115Z,26.80
2022-09-14T13:37:15.136Z,26.70
2022-09-14T13:39:50.883Z,26.70
2022-09-14T13:42:17.928Z,26.70
2022-09-14T13:44:46.640Z,26.70
2022-09-14T13:47:14.694Z,26.60
2022-09-14T13:49:42.711Z,26.50
2022-09-14T13:52:21.562Z,26.40
2022-09-14T13:54:53.333Z,26.30
2022-09-14T13:57:24.306Z,26.30
2022-09-14T14:00:16.353Z,26.30
2022-09-14T14:02:46.101Z,26.10
2022-09-14T14:05:22.159Z,25.80
2022-09-14T14:07:48.819Z,25.60
2022-09-14T14:10:32.392Z,25.50
2022-09-14T14:12:59.939Z,25.30
2022-09-14T14:15:26.636Z,25.10
2022-09-14T14:17:53.735Z,25.10
2022-09-14T14:20:26.603Z,25.00
2022-09-14T14:22:58.263Z,25.00
2022-09-14T14:25:28.818Z,24.90
2022-09-14T14:27:59.263Z,24.90
2022-09-14T14:30:28.409Z,24.80
2022-09-14T14:32:56.067Z,24.70
2022-09-14T14:35:24.326Z,24.60
2022-09-14T14:37:51.260Z,24.60
2022-09-14T14:40:18.372Z,24.60
2022-09-14T14:42:45.482Z,24.70
2022-09-14T14:45:23.180Z,24.60
2022-09-14T14:47:52.816Z,24.60
2022-09-14T14:50:26.649Z,24.50
2022-09-14T14:52:53.589Z,24.40
2022-09-14T14:55:21.107Z,24.30
2022-09-14T14:57:48.245Z,24.20
2022-09-14T15:00:17.232Z,24.10
2022-09-14T15:02:43.943Z,24.10
2022-09-14T15:05:10.883Z,24.10
2022-09-14T15:07:37.981Z,24.10
2022-09-14T15:10:05.386Z,24.00
2022-09-14T15:12:32.371Z,23.90
2022-09-14T15:14:59.254Z,23.90
2022-09-14T15:17:25.951Z,23.90
2022-09-14T15:19:52.651Z,23.80
2022-09-14T15:22:19.524Z,23.80
2022-09-14T15:24:46.130Z,23.80
2022-09-14T15:27:12.864Z,23.80
2022-09-14T15:29:39.504Z,23.80
2022-09-14T15:32:06.512Z,23.80
2022-09-14T15:34:33.218Z,23.80
2022-09-14T15:36:59.973Z,23.70
2022-09-14T15:39:27.668Z,23.60
2022-09-14T15:41:54.984Z,23.60
2022-09-14T15:44:22.097Z,23.50
2022-09-14T15:46:49.069Z,23.30
2022-09-14T15:49:19.873Z,23.20
2022-09-14T15:51:47.308Z,23.20
2022-09-14T15:54:14.551Z,23.10
2022-09-14T15:56:41.792Z,23.10
2022-09-14T15:59:09.145Z,23.00
2022-09-14T16:01:36.133Z,22.90
2022-09-14T16:04:10.985Z,22.90
2022-09-14T16:06:39.067Z,22.90
2022-09-14T16:09:06.911Z,22.90
2022-09-14T16:11:34.243Z,22.90
2022-09-14T16:14:00.971Z,23.10
2022-09-14T16:16:27.684Z,23.10
2022-09-14T16:18:54.467Z,23.00
2022-09-14T16:21:22.556Z,23.10
2022-09-14T16:23:51.058Z,23.00
2022-09-14T16:26:24.044Z,22.90
2022-09-14T16:28:51.627Z,22.80
2022-09-14T16:31:23.070Z,22.60
2022-09-14T16:33:51.252Z,22.10
2022-09-14T16:36:19.544Z,21.80
2022-09-14T16:38:46.266Z,21.60
2022-09-14T16:41:13.648Z,21.40
2022-09-14T16:43:40.653Z,21.20
2022-09-14T16:46:12.784Z,21.20
2022-09-14T16:48:40.763Z,21.30
2022-09-14T16:51:07.619Z,21.20
2022-09-14T16:53:35.224Z,21.10
2022-09-14T16:56:01.987Z,21.30
2022-09-14T16:58:28.809Z,21.10
2022-09-14T17:00:55.707Z,21.10
2022-09-14T17:03:22.493Z,20.70
2022-09-14T17:05:49.124Z,20.20
2022-09-14T17:08:15.743Z,19.90
2022-09-14T17:10:42.393Z,19.70
2022-09-14T17:13:09.182Z,19.60
2022-09-14T17:15:35.804Z,19.50
2022-09-14T17:18:02.429Z,19.50
2022-09-14T17:20:29.158Z,19.50
2022-09-14T17:22:55.815Z,19.60
2022-09-14T17:25:23.700Z,19.50
2022-09-14T17:27:50.303Z,19.40
2022-09-14T17:30:16.970Z,19.30
2022-09-14T17:32:43.638Z,19.30
2022-09-14T17:35:10.265Z,19.10
2022-09-14T17:37:36.943Z,19.20
2022-09-14T17:40:03.787Z,19.10
2022-09-14T17:42:30.539Z,19.10
2022-09-14T17:44:57.317Z,19.00
2022-09-14T17:47:24.317Z,19.00
2022-09-14T17:49:50.948Z,19.00
2022-09-14T17:52:17.683Z,19.00
2022-09-14T17:54:44.378Z,19.00
2022-09-14T17:57:11.054Z,19.10
2022-09-14T17:59:37.704Z,19.10
2022-09-14T18:02:04.617Z,19.10
2022-09-14T18:04:31.211Z,19.10
2022-09-14T18:06:58.063Z,19.10
2022-09-14T18:09:24.832Z,19.00
2022-09-14T18:11:54.360Z,19.00
2022-09-14T18:14:20.987Z,19.00
2022-09-14T18:16:47.610Z,19.00
2022-09-14T18:19:14.851Z,18.90
2022-09-14T18:21:42.068Z,18.90
2022-09-14T18:24:10.375Z,18.90
2022-09-14T18:26:38.515Z,18.90
2022-09-14T18:29:05.178Z,18.80
2022-09-14T18:31:31.898Z,18.70
2022-09-14T18:34:00.164Z,18.70
2022-09-14T18:36:29.310Z,18.70
2022-09-14T18:38:56.734Z,18.70
2022-09-14T18:41:23.354Z,18.60
2022-09-14T18:43:50.843Z,18.60
2022-09-14T18:46:18.170Z,18.60
2022-09-14T18:48:45.253Z,18.50
2022-09-14T18:51:12.943Z,18.50
2022-09-14T18:53:40.273Z,18.40
2022-09-14T18:56:08.595Z,18.50
2022-09-14T18:58:36.699Z,18.40
2022-09-14T19:01:03.910Z,18.40
2022-09-14T19:03:31.100Z,18.40
2022-09-14T19:05:58.736Z,18.40
2022-09-14T19:08:25.624Z,18.40
2022-09-14T19:10:53.240Z,18.40
2022-09-14T19:13:20.003Z,18.40
2022-09-14T19:15:46.886Z,18.40
2022-09-14T19:18:13.678Z,18.40
2022-09-14T19:21:04.751Z,18.40
2022-09-14T19:23:27.154Z,18.40
2022-09-14T19:25:53.985Z,18.40
2022-09-14T19:28:20.637Z,18.40
2022-09-14T19:30:48.886Z,18.40
2022-09-14T19:33:15.660Z,18.40
2022-09-14T19:35:42.355Z,18.40
2022-09-14T19:38:08.989Z,18.30
2022-09-14T19:40:35.701Z,18.40
2022-09-14T19:43:02.390Z,18.40
2022-09-14T19:45:29.403Z,18.40
2022-09-14T19:47:56.150Z,18.40
2022-09-14T19:50:22.769Z,18.40
2022-09-14T19:52:49.426Z,18.40
2022-09-14T19:55:16.101Z,18.30
2022-09-14T19:57:42.745Z,18.40
2022-09-14T20:00:15.179Z,18.40
2022-09-14T20:02:47.228Z,18.30
2022-09-14T20:05:15.613Z,18.40
2022-09-14T20:07:43.037Z,18.40
2022-09-14T20:10:10.049Z,18.40
2022-09-14T20:12:36.695Z,18.40
2022-09-14T20:15:03.401Z,18.40
2022-09-14T20:17:31.222Z,18.40
2022-09-14T20:19:57.789Z,18.40
2022-09-14T20:22:24.411Z,18.40
2022-09-14T20:24:51.059Z,18.40
2022-09-14T20:27:17.661Z,18.30
2022-09-14T20:29:44.354Z,18.40
2022-09-14T20:32:10.926Z,18.40
2022-09-14T20:34:37.599Z,18.40
2022-09-14T20:37:04.250Z,18.40
2022-09-14T20:39:31.163Z,18.40
2022-09-14T20:41:57.808Z,18.40
2022-09-14T20:44:24.395Z,18.40
2022-09-14T20:46:51.323Z,18.40
2022-09-14T20:49:19.546Z,18.40
2022-09-14T20:51:46.781Z,18.40
2022-09-14T20:54:14.768Z,18.50
2022-09-14T20:56:41.913Z,18.40
2022-09-14T20:59:10.431Z,18.40
2022-09-14T21:01:37.971Z,18.40
2022-09-14T21:04:06.568Z,18.40
2022-09-14T21:06:35.516Z,18.40
2022-09-14T21:09:02.509Z,18.40
2022-09-14T21:11:29.124Z,18.40
2022-09-14T21:13:57.307Z,18.40
2022-09-14T21:16:26.121Z,18.40
2022-09-14T21:19:00.535Z,18.40
2022-09-14T21:21:27.360Z,18.40
2022-09-14T21:23:55.818Z,18.40
2022-09-14T21:26:22.691Z,18.40
2022-09-14T21:28:49.298Z,18.40
2022-09-14T21:31:17.370Z,18.40
2022-09-14T21:33:45.108Z,18.40
2022-09-14T21:36:22.446Z,18.40
2022-09-14T21:38:49.950Z,18.40
2022-09-14T21:41:16.967Z,18.40
2022-09-14T21:43:43.573Z,18.40
2022-09-14T21:46:10.852Z,18.40
2022-09-14T21:48:37.756Z,18.40
2022-09-14T21:51:10.285Z,18.30
2022-09-14T21:53:36.884Z,18.30
2022-09-14T21:56:04.804Z,18.20
2022-09-14T21:58:31.466Z,18.20
2022-09-14T22:00:58.854Z,18.20
2022-09-14T22:03:25.837Z,18.20
2022-09-14T22:05:56.793Z,18.20
2022-09-14T22:08:23.498Z,18.20
2022-09-14T22:10:50.190Z,18.20
2022-09-14T22:13:16.914Z,18.20
2022-09-14T22:15:43.611Z,18.10
2022-09-14T22:18:10.240Z,18.10
2022-09-14T22:20:36.926Z,18.10
2022-09-14T22:23:03.635Z,18.00
2022-09-14T22:25:31.727Z,18.00
2022-09-14T22:27:58.424Z,18.00
2022-09-14T22:30:25.305Z,18.00
2022-09-14T22:32:52.123Z,17.90
2022-09-14T22:35:18.736Z,17.80
2022-09-14T22:37:45.420Z,17.80
2022-09-14T22:40:12.094Z,17.80
2022-09-14T22:42:38.756Z,17.70
2022-09-14T22:45:05.587Z,17.70
2022-09-14T22:47:32.224Z,17.70
2022-09-14T22:49:58.790Z,17.70
2022-09-14T22:52:25.367Z,17.70
2022-09-14T22:54:51.998Z,17.70
2022-09-14T22:57:18.593Z,17.80
2022-09-14T22:59:45.193Z,17.80
2022-09-14T23:02:11.870Z,17.80
2022-09-14T23:04:38.478Z,17.80
2022-09-14T23:07:06.717Z,17.60
2022-09-14T23:09:33.406Z,17.60
2022-09-14T23:12:00.031Z,17.60
2022-09-14T23:14:26.657Z,17.70
2022-09-14T23:16:53.401Z,17.70
2022-09-14T23:19:20.164Z,17.70
2022-09-14T23:21:46.754Z,17.80
2022-09-14T23:24:13.411Z,17.80
2022-09-14T23:26:40.175Z,17.80
2022-09-14T23:29:09.352Z,17.70
2022-09-14T23:31:36.315Z,17.80
2022-09-14T23:34:03.576Z,17.80
2022-09-14T23:36:30.775Z,17.70
2022-09-14T23:38:57.434Z,17.70
2022-09-14T23:41:24.977Z,17.70
2022-09-14T23:43:52.043Z,17.70
2022-09-14T23:46:19.122Z,17.70
2022-09-14T23:48:46.022Z,17.70
2022-09-14T23:51:13.101Z,17.70
2022-09-14T23:53:39.921Z,17.70
2022-09-14T23:56:07.035Z,17.70
2022-09-14T23:58:33.627Z,17.70
